createdAt,value
2022-12-15T00:01:19.906Z,17.00
2022-12-15T00:04:26.617Z,15.37
2022-12-15T00:07:32.404Z,15.70
2022-12-15T00:10:39.005Z,15.77
2022-12-15T00:13:45.468Z,14.57
2022-12-15T00:16:51.297Z,14.43
2022-12-15T00:19:57.809Z,14.73
2022-12-15T00:23:03.791Z,15.87
2022-12-15T00:26:10.351Z,17.03
2022-12-15T00:29:16.888Z,18.37
2022-12-15T00:32:23.508Z,17.90
2022-12-15T00:35:29.510Z,19.33
2022-12-15T00:38:36.106Z,19.40
2022-12-15T00:41:24.070Z,18.03
2022-12-15T00:44:15.828Z,18.97
2022-12-15T00:47:06.465Z,18.87
2022-12-15T00:50:13.129Z,19.50
2022-12-15T00:53:19.192Z,18.87
2022-12-15T00:56:25.821Z,19.60
2022-12-15T00:59:32.706Z,20.33
2022-12-15T01:02:38.976Z,19.90
2022-12-15T01:05:45.796Z,19.47
2022-12-15T01:08:51.726Z,20.00
2022-12-15T01:11:58.676Z,18.57
2022-12-15T01:15:04.712Z,18.23
2022-12-15T01:18:11.104Z,18.07
2022-12-15T01:21:03.720Z,18.13
2022-12-15T01:23:50.945Z,20.37
2022-12-15T01:26:39.321Z,20.00
2022-12-15T01:29:27.235Z,18.53
2022-12-15T01:32:14.699Z,18.57
2022-12-15T01:35:02.636Z,18.87
2022-12-15T01:37:50.330Z,19.37
2022-12-15T01:40:46.956Z,17.40
2022-12-15T01:43:36.229Z,18.30
2022-12-15T01:46:25.346Z,17.67
2022-12-15T01:49:16.419Z,17.97
2022-12-15T01:52:07.098Z,17.80
2022-12-15T01:54:56.630Z,17.83
2022-12-15T01:57:44.735Z,18.20
2022-12-15T02:00:32.768Z,17.77
2022-12-15T02:03:20.351Z,19.50
2022-12-15T02:06:09.721Z,17.43
2022-12-15T02:08:59.473Z,17.37
2022-12-15T02:11:58.601Z,19.13
2022-12-15T02:15:15.124Z,19.00
2022-12-15T02:18:24.186Z,18.17
2022-12-15T02:21:17.666Z,16.77
2022-12-15T02:24:24.125Z,17.47
2022-12-15T02:27:14.102Z,16.37
2022-12-15T02:30:14.696Z,16.40
2022-12-15T02:33:05.514Z,15.40
2022-12-15T02:36:01.387Z,15.27
2022-12-15T02:38:49.252Z,14.87
2022-12-15T02:41:43.909Z,14.70
2022-12-15T02:44:40.675Z,15.90
2022-12-15T02:47:30.884Z,14.87
2022-12-15T02:50:41.662Z,16.47
2022-12-15T02:53:35.730Z,16.07
2022-12-15T02:56:28.032Z,15.07
2022-12-15T02:59:21.878Z,15.70
2022-12-15T03:02:10.252Z,14.30
2022-12-15T03:04:58.806Z,16.87
2022-12-15T03:07:49.590Z,15.73
2022-12-15T03:10:37.681Z,16.77
2022-12-15T03:13:25.335Z,15.67
2022-12-15T03:16:13.566Z,17.33
2022-12-15T03:19:01.372Z,16.03
2022-12-15T03:21:49.109Z,16.20
2022-12-15T03:24:36.493Z,17.00
2022-12-15T03:27:24.437Z,16.83
2022-12-15T03:30:12.248Z,18.30
2022-12-15T03:33:00.106Z,17.27
2022-12-15T03:35:48.072Z,17.53
2022-12-15T03:38:35.736Z,16.97
2022-12-15T03:41:23.606Z,18.87
2022-12-15T03:44:11.483Z,18.37
2022-12-15T03:47:03.296Z,18.07
2022-12-15T03:49:51.655Z,17.97
2022-12-15T03:52:39.111Z,17.90
2022-12-15T03:55:27.175Z,18.53
2022-12-15T03:58:15.041Z,18.23
2022-12-15T04:01:14.368Z,18.70
2022-12-15T04:04:02.482Z,17.87
2022-12-15T04:06:50.285Z,19.07
2022-12-15T04:09:37.624Z,18.03
2022-12-15T04:12:25.486Z,18.37
2022-12-15T04:15:12.986Z,18.63
2022-12-15T04:18:02.334Z,18.53
2022-12-15T04:20:50.193Z,20.87
2022-12-15T04:23:37.695Z,20.23
2022-12-15T04:26:44.082Z,18.83
2022-12-15T04:29:50.644Z,18.53
2022-12-15T04:32:57.149Z,19.17
2022-12-15T04:36:03.333Z,19.20
2022-12-15T04:39:10.284Z,21.00
2022-12-15T04:42:18.986Z,18.63
2022-12-15T04:45:25.662Z,18.23
2022-12-15T04:48:32.930Z,20.27
2022-12-15T04:51:39.005Z,19.53
2022-12-15T04:54:45.525Z,19.80
2022-12-15T04:57:51.457Z,19.10
2022-12-15T05:00:57.959Z,19.13
2022-12-15T05:04:03.903Z,20.23
2022-12-15T05:07:10.453Z,17.73
2022-12-15T05:10:16.533Z,18.80
2022-12-15T05:13:26.101Z,19.40
2022-12-15T05:16:32.093Z,18.67
2022-12-15T05:19:38.141Z,19.00
2022-12-15T05:22:44.076Z,19.00
2022-12-15T05:25:50.102Z,18.73
2022-12-15T05:28:56.674Z,20.43
2022-12-15T05:31:49.001Z,17.37
2022-12-15T05:34:38.496Z,18.03
2022-12-15T05:37:26.378Z,20.87
2022-12-15T05:40:14.103Z,19.70
2022-12-15T05:43:01.503Z,17.40
2022-12-15T05:45:49.174Z,20.00
2022-12-15T05:48:36.669Z,19.77
2022-12-15T05:51:24.362Z,21.47
2022-12-15T05:54:12.680Z,18.73
2022-12-15T05:57:00.790Z,19.70
2022-12-15T05:59:47.972Z,19.77
2022-12-15T06:02:35.696Z,19.90
2022-12-15T06:05:23.112Z,20.63
2022-12-15T06:08:11.000Z,20.20
2022-12-15T06:10:58.730Z,20.10
2022-12-15T06:13:46.830Z,19.03
2022-12-15T06:16:39.595Z,20.67
2022-12-15T06:19:30.734Z,19.97
2022-12-15T06:22:18.685Z,22.00
2022-12-15T06:25:06.719Z,20.87
2022-12-15T06:27:59.919Z,18.70
2022-12-15T06:30:48.960Z,17.37
2022-12-15T06:33:36.724Z,18.50
2022-12-15T06:36:24.606Z,18.37
2022-12-15T06:39:13.952Z,17.63
2022-12-15T06:42:01.414Z,19.23
2022-12-15T06:44:49.976Z,17.57
2022-12-15T06:47:37.989Z,19.83
2022-12-15T06:50:25.209Z,17.83
2022-12-15T06:53:13.360Z,19.40
2022-12-15T06:56:02.344Z,19.37
2022-12-15T06:58:50.157Z,21.37
2022-12-15T07:01:38.614Z,18.70
2022-12-15T07:04:27.166Z,21.57
2022-12-15T07:07:14.561Z,19.77
2022-12-15T07:10:02.498Z,18.97
2022-12-15T07:12:50.453Z,19.77
2022-12-15T07:15:38.323Z,19.60
2022-12-15T07:18:26.164Z,20.37
2022-12-15T07:21:13.596Z,19.73
2022-12-15T07:24:02.399Z,18.27
2022-12-15T07:26:50.502Z,18.33
2022-12-15T07:29:38.424Z,19.80
2022-12-15T07:32:25.841Z,18.80
2022-12-15T07:35:13.974Z,17.17
2022-12-15T07:38:01.459Z,19.60
2022-12-15T07:40:49.684Z,18.47
2022-12-15T07:43:37.898Z,19.70
2022-12-15T07:46:27.799Z,19.00
2022-12-15T07:49:17.214Z,18.90
2022-12-15T07:52:04.671Z,22.40
2022-12-15T07:54:52.211Z,19.23
2022-12-15T07:57:39.624Z,28.70
2022-12-15T08:00:28.640Z,21.40
2022-12-15T08:03:16.350Z,22.70
2022-12-15T08:06:07.183Z,19.50
2022-12-15T08:08:54.623Z,20.93
2022-12-15T08:11:43.679Z,19.80
2022-12-15T08:14:32.875Z,20.20
2022-12-15T08:17:20.449Z,19.33
2022-12-15T08:20:10.197Z,20.17
2022-12-15T08:22:57.887Z,20.53
2022-12-15T08:25:45.513Z,20.20
2022-12-15T08:28:34.084Z,20.47
2022-12-15T08:31:22.388Z,20.87
2022-12-15T08:34:11.330Z,21.47
2022-12-15T08:36:58.799Z,19.80
2022-12-15T08:39:46.326Z,20.33
2022-12-15T08:42:34.385Z,18.80
2022-12-15T08:45:21.868Z,20.30
2022-12-15T08:48:10.040Z,20.47
2022-12-15T08:50:58.025Z,21.73
2022-12-15T08:53:46.993Z,21.57
2022-12-15T08:56:35.949Z,20.00
2022-12-15T08:59:23.291Z,21.47
2022-12-15T09:02:12.617Z,20.87
2022-12-15T09:05:00.541Z,20.63
2022-12-15T09:07:48.339Z,21.63
2022-12-15T09:10:40.727Z,22.00
2022-12-15T09:13:29.469Z,20.90
2022-12-15T09:16:18.191Z,20.03
2022-12-15T09:19:06.305Z,21.40
2022-12-15T09:21:54.400Z,20.97
2022-12-15T09:24:41.809Z,21.27
2022-12-15T09:27:31.224Z,21.43
2022-12-15T09:30:19.208Z,21.67
2022-12-15T09:33:07.202Z,21.03
2022-12-15T09:35:55.272Z,20.47
2022-12-15T09:38:43.450Z,20.60
2022-12-15T09:41:32.447Z,19.50
2022-12-15T09:44:21.973Z,19.97
2022-12-15T09:47:23.323Z,20.17
2022-12-15T09:50:12.247Z,21.13
2022-12-15T09:53:00.520Z,19.77
2022-12-15T09:55:51.450Z,21.20
2022-12-15T09:58:45.130Z,22.43
2022-12-15T10:01:38.211Z,21.33
2022-12-15T10:04:38.237Z,21.20
2022-12-15T10:07:25.634Z,21.27
2022-12-15T10:10:18.668Z,21.10
2022-12-15T10:13:11.043Z,20.40
2022-12-15T10:16:00.604Z,19.83
2022-12-15T10:18:57.580Z,20.60
2022-12-15T10:21:50.549Z,20.80
2022-12-15T10:25:08.568Z,20.10
2022-12-15T10:27:49.200Z,20.93
2022-12-15T10:30:40.594Z,18.77
2022-12-15T10:33:29.913Z,19.53
2022-12-15T10:36:17.803Z,20.30
2022-12-15T10:39:05.928Z,19.40
2022-12-15T10:42:13.292Z,18.90
2022-12-15T10:45:00.707Z,21.10
2022-12-15T10:47:59.037Z,21.40
2022-12-15T10:50:47.165Z,19.83
2022-12-15T10:53:42.330Z,20.43
2022-12-15T10:56:33.544Z,22.27
2022-12-15T10:59:33.377Z,20.63
2022-12-15T11:02:23.912Z,20.87
2022-12-15T11:05:16.329Z,20.03
2022-12-15T11:08:17.116Z,21.30
2022-12-15T11:11:25.994Z,20.20
2022-12-15T11:14:15.842Z,21.40
2022-12-15T11:17:07.971Z,20.77
2022-12-15T11:20:05.892Z,21.13
2022-12-15T11:22:56.853Z,20.60
2022-12-15T11:25:47.300Z,21.03
2022-12-15T11:28:40.112Z,22.13
2022-12-15T11:31:40.872Z,23.63
2022-12-15T11:34:35.759Z,21.57
2022-12-15T11:40:43.131Z,22.77
2022-12-15T11:44:04.349Z,22.23
2022-12-15T11:47:17.414Z,21.10
2022-12-15T11:50:17.458Z,23.20
2022-12-15T11:53:19.611Z,21.47
2022-12-15T11:56:31.873Z,21.90
2022-12-15T11:59:19.258Z,22.00
2022-12-15T12:02:09.550Z,21.53
2022-12-15T12:05:06.293Z,26.23
2022-12-15T12:07:59.469Z,25.90
2022-12-15T12:10:57.640Z,23.77
2022-12-15T12:13:51.892Z,24.80
2022-12-15T12:16:42.110Z,24.37
2022-12-15T12:19:36.522Z,24.40
2022-12-15T12:22:29.271Z,23.20
2022-12-15T12:25:19.463Z,23.27
2022-12-15T12:28:23.996Z,24.53
2022-12-15T12:31:22.316Z,24.40
2022-12-15T12:34:14.072Z,25.37
2022-12-15T12:37:20.480Z,23.37
2022-12-15T12:40:43.290Z,23.80
2022-12-15T12:43:35.168Z,22.13
2022-12-15T12:46:30.853Z,24.63
2022-12-15T12:49:56.984Z,24.53
2022-12-15T12:53:04.555Z,23.37
2022-12-15T12:55:51.990Z,23.10
2022-12-15T12:58:48.423Z,25.63
2022-12-15T13:01:38.323Z,25.03
2022-12-15T13:04:29.314Z,24.53
2022-12-15T13:07:34.631Z,22.87
2022-12-15T13:10:23.804Z,22.57
2022-12-15T13:13:23.759Z,24.73
2022-12-15T13:16:14.520Z,23.80
2022-12-15T13:19:10.798Z,23.50
2022-12-15T13:21:58.536Z,25.13
2022-12-15T13:24:50.561Z,22.43
2022-12-15T13:27:40.682Z,24.87
2022-12-15T13:30:28.747Z,23.70
2022-12-15T13:33:20.045Z,23.80
2022-12-15T13:36:07.970Z,23.47
2022-12-15T13:38:56.532Z,24.27
2022-12-15T13:42:07.539Z,23.97
2022-12-15T13:44:53.850Z,24.47
2022-12-15T13:47:42.453Z,23.77
2022-12-15T13:50:37.304Z,23.57
2022-12-15T13:53:26.821Z,22.00
2022-12-15T13:56:26.358Z,24.77
2022-12-15T13:59:32.097Z,25.53
2022-12-15T14:02:29.241Z,24.40
2022-12-15T14:05:22.626Z,24.80
2022-12-15T14:08:13.906Z,24.73
2022-12-15T14:11:16.495Z,23.63
2022-12-15T14:14:17.506Z,21.63
2022-12-15T14:17:08.750Z,23.57
2022-12-15T14:19:56.408Z,21.20
2022-12-15T14:22:44.327Z,24.50
2022-12-15T14:25:31.687Z,23.57
2022-12-15T14:28:26.325Z,24.77
2022-12-15T14:31:18.789Z,24.30
2022-12-15T14:34:09.446Z,22.83
2022-12-15T14:36:58.657Z,23.43
2022-12-15T14:39:50.224Z,23.57
2022-12-15T14:42:38.774Z,22.57
2022-12-15T14:45:27.788Z,22.37
2022-12-15T14:51:30.441Z,21.97
2022-12-15T14:54:33.224Z,21.93
2022-12-15T14:57:26.275Z,22.23
2022-12-15T15:00:31.533Z,20.80
2022-12-15T15:03:06.969Z,22.03
2022-12-15T15:03:24.610Z,21.10
2022-12-15T15:06:12.527Z,23.17
2022-12-15T15:09:04.842Z,23.53
2022-12-15T15:11:55.309Z,22.63
2022-12-15T15:14:47.980Z,24.33
2022-12-15T15:17:39.794Z,20.97
2022-12-15T15:20:38.250Z,23.83
2022-12-15T15:23:26.219Z,22.60
2022-12-15T15:26:16.360Z,21.10
2022-12-15T15:29:04.372Z,22.37
2022-12-15T15:31:53.949Z,22.90
2022-12-15T15:34:41.873Z,23.37
2022-12-15T15:37:29.285Z,22.53
2022-12-15T15:40:18.059Z,23.40
2022-12-15T15:43:11.442Z,22.47
2022-12-15T15:46:03.734Z,24.07
2022-12-15T15:48:52.671Z,23.70
2022-12-15T15:51:40.608Z,22.23
2022-12-15T15:54:33.702Z,22.87
2022-12-15T15:57:21.568Z,23.27
2022-12-15T16:00:17.038Z,22.30
2022-12-15T16:03:05.136Z,21.87
2022-12-15T16:05:53.128Z,23.67
2022-12-15T16:08:40.661Z,22.47
2022-12-15T16:11:30.870Z,22.97
2022-12-15T16:14:18.998Z,24.53
2022-12-15T16:17:10.129Z,25.03
2022-12-15T16:19:57.527Z,23.77
2022-12-15T16:22:46.369Z,23.20
2022-12-15T16:25:43.755Z,23.30
2022-12-15T16:28:34.483Z,23.07
2022-12-15T16:31:32.772Z,23.70
2022-12-15T16:34:24.665Z,24.77
2022-12-15T16:37:18.833Z,22.97
2022-12-15T16:40:14.629Z,24.70
2022-12-15T16:43:03.139Z,23.97
2022-12-15T16:45:51.435Z,23.40
2022-12-15T16:48:39.335Z,25.23
2022-12-15T16:51:34.846Z,24.20
2022-12-15T16:54:29.141Z,25.57
2022-12-15T16:57:16.532Z,25.03
2022-12-15T17:00:04.778Z,24.57
2022-12-15T17:02:53.189Z,23.57
2022-12-15T17:05:41.472Z,24.53
2022-12-15T17:08:34.376Z,24.17
2022-12-15T17:11:23.940Z,25.13
2022-12-15T17:14:12.007Z,25.83
2022-12-15T17:16:59.994Z,25.70
2022-12-15T17:20:19.713Z,25.33
2022-12-15T17:23:00.153Z,24.33
2022-12-15T17:26:19.983Z,25.10
2022-12-15T17:28:56.491Z,24.67
2022-12-15T17:31:44.552Z,23.97
2022-12-15T17:34:33.221Z,23.73
2022-12-15T17:37:21.110Z,23.83
2022-12-15T17:40:15.580Z,24.47
2022-12-15T17:43:03.300Z,26.10
2022-12-15T17:45:50.862Z,24.77
2022-12-15T17:48:38.781Z,24.17
2022-12-15T17:51:26.837Z,25.10
2022-12-15T17:54:18.716Z,25.00
2022-12-15T17:57:06.223Z,24.17
2022-12-15T17:59:53.863Z,24.40
2022-12-15T18:02:42.069Z,22.50
2022-12-15T18:05:31.043Z,23.37
2022-12-15T18:08:20.405Z,25.77
2022-12-15T18:11:14.482Z,25.20
2022-12-15T18:14:02.280Z,24.30
2022-12-15T18:16:49.552Z,24.87
2022-12-15T18:19:37.053Z,25.33
2022-12-15T18:22:25.044Z,25.30
2022-12-15T18:25:20.762Z,24.63
2022-12-15T18:28:22.392Z,24.30
2022-12-15T18:31:16.599Z,25.90
2022-12-15T18:34:06.540Z,24.97
2022-12-15T18:36:54.388Z,26.73
2022-12-15T18:39:41.785Z,26.80
2022-12-15T18:42:29.290Z,24.93
2022-12-15T18:45:18.394Z,24.80
2022-12-15T18:48:27.427Z,23.83
2022-12-15T18:51:19.447Z,25.73
2022-12-15T18:54:07.776Z,26.63
2022-12-15T18:56:55.698Z,25.17
2022-12-15T18:59:43.182Z,24.43
2022-12-15T19:02:30.768Z,26.07
2022-12-15T19:05:33.015Z,26.13
2022-12-15T19:08:24.903Z,24.87
2022-12-15T19:11:20.084Z,25.63
2022-12-15T19:14:37.095Z,23.97
2022-12-15T19:17:43.857Z,28.63
2022-12-15T19:20:50.649Z,27.27
2022-12-15T19:23:38.349Z,25.50
2022-12-15T19:26:25.853Z,26.17
2022-12-15T19:29:18.413Z,25.43
2022-12-15T19:32:06.060Z,27.13
2022-12-15T19:34:53.985Z,25.50
2022-12-15T19:37:43.536Z,26.80
2022-12-15T19:40:33.076Z,25.97
2022-12-15T19:43:21.102Z,26.33
2022-12-15T19:46:19.110Z,24.27
2022-12-15T19:49:06.608Z,24.30
2022-12-15T19:51:54.586Z,24.50
2022-12-15T19:54:42.308Z,25.13
2022-12-15T19:57:30.288Z,27.27
2022-12-15T20:00:21.399Z,24.90
2022-12-15T20:03:09.507Z,25.17
2022-12-15T20:05:57.967Z,23.13
2022-12-15T20:08:47.472Z,23.13
2022-12-15T20:11:34.887Z,24.87
2022-12-15T20:14:22.401Z,24.90
2022-12-15T20:17:09.966Z,25.23
2022-12-15T20:19:57.428Z,22.73
2022-12-15T20:22:46.425Z,23.67
2022-12-15T20:25:36.039Z,23.07
2022-12-15T20:28:24.873Z,22.47
2022-12-15T20:33:48.386Z,24.60
2022-12-15T20:36:36.443Z,23.60
2022-12-15T20:39:26.660Z,21.10
2022-12-15T20:42:15.045Z,21.70
2022-12-15T20:45:02.566Z,19.40
2022-12-15T20:47:50.843Z,20.40
2022-12-15T20:50:41.169Z,19.77
2022-12-15T20:53:29.051Z,20.10
2022-12-15T20:56:16.620Z,19.63
2022-12-15T20:59:04.583Z,19.77
2022-12-15T21:01:52.600Z,18.23
2022-12-15T21:04:42.305Z,17.10
2022-12-15T21:07:29.781Z,19.67
2022-12-15T21:10:18.752Z,18.50
2022-12-15T21:13:10.969Z,17.23
2022-12-15T21:15:58.389Z,18.17
2022-12-15T21:21:55.751Z,17.90
2022-12-15T21:24:43.288Z,17.03
2022-12-15T21:27:30.791Z,17.60
2022-12-15T21:30:20.642Z,17.63
2022-12-15T21:33:08.684Z,18.00
2022-12-15T21:35:56.120Z,18.73
2022-12-15T21:38:45.078Z,18.43
2022-12-15T21:41:32.516Z,18.37
2022-12-15T21:44:20.493Z,16.77
2022-12-15T21:47:23.490Z,17.37
2022-12-15T21:50:11.369Z,16.27
2022-12-15T21:52:59.464Z,15.27
2022-12-15T21:55:48.000Z,16.17
2022-12-15T21:58:35.526Z,15.17
2022-12-15T22:01:29.798Z,15.63
2022-12-15T22:04:17.393Z,14.50
2022-12-15T22:07:07.234Z,14.53
2022-12-15T22:09:54.644Z,13.17
2022-12-15T22:12:44.509Z,13.03
2022-12-15T22:15:31.747Z,12.53
2022-12-15T22:18:20.319Z,12.03
2022-12-15T22:21:07.819Z,12.27
2022-12-15T22:23:55.253Z,12.97
2022-12-15T22:26:43.443Z,12.83
2022-12-15T22:29:31.623Z,12.33
2022-12-15T22:32:19.639Z,12.30
2022-12-15T22:35:26.530Z,12.20
2022-12-15T22:38:14.554Z,12.33
2022-12-15T22:41:01.883Z,12.07
2022-12-15T22:43:51.491Z,11.70
2022-12-15T22:46:39.272Z,12.47
2022-12-15T22:49:30.691Z,11.57
2022-12-15T22:52:19.409Z,11.70
2022-12-15T22:55:07.552Z,12.63
2022-12-15T22:58:00.163Z,12.23
2022-12-15T23:00:48.284Z,12.27
2022-12-15T23:03:36.437Z,11.63
2022-12-15T23:06:24.255Z,10.40
2022-12-15T23:09:12.217Z,10.87
2022-12-15T23:12:00.172Z,10.87
2022-12-15T23:15:06.680Z,10.87
2022-12-15T23:17:53.949Z,10.43
2022-12-15T23:20:42.990Z,9.13
2022-12-15T23:23:32.757Z,10.97
2022-12-15T23:26:22.243Z,10.37
2022-12-15T23:29:10.142Z,9.73
2022-12-15T23:31:57.854Z,9.30
2022-12-15T23:34:46.358Z,10.57
2022-12-15T23:37:35.079Z,10.43
2022-12-15T23:40:23.251Z,9.90
2022-12-15T23:43:10.664Z,10.83
2022-12-15T23:46:07.065Z,9.43
2022-12-15T23:48:55.739Z,10.93
2022-12-15T23:51:43.656Z,10.73
2022-12-15T23:54:31.600Z,9.93
2022-12-15T23:57:19.541Z,10.60
